createdAt,value
2018-10-04T00:00:18.691Z,1.50
2018-10-04T00:02:46.816Z,1.60
2018-10-04T00:05:14.874Z,1.90
2018-10-04T00:07:43.013Z,1.60
2018-10-04T00:10:11.071Z,1.90
2018-10-04T00:12:39.148Z,1.90
2018-10-04T00:15:07.218Z,1.90
2018-10-04T00:17:35.359Z,1.83
2018-10-04T00:20:03.463Z,1.63
2018-10-04T00:22:31.538Z,1.70
2018-10-04T00:24:59.603Z,1.70
2018-10-04T00:27:27.710Z,1.77
2018-10-04T00:29:55.828Z,1.93
2018-10-04T00:32:23.919Z,1.73
2018-10-04T00:34:52.010Z,1.67
2018-10-04T00:37:20.108Z,2.07
2018-10-04T00:39:48.209Z,1.73
2018-10-04T00:42:16.342Z,2.10
2018-10-04T00:44:44.430Z,1.50
2018-10-04T00:47:18.121Z,1.80
2018-10-04T00:49:47.631Z,1.93
2018-10-04T00:52:15.722Z,1.90
2018-10-04T00:54:44.427Z,1.87
2018-10-04T00:57:12.570Z,1.83
2018-10-04T00:59:40.754Z,2.30
2018-10-04T01:02:09.531Z,2.30
2018-10-04T01:04:37.630Z,2.47
2018-10-04T01:07:05.812Z,2.10
2018-10-04T01:09:33.874Z,2.17
2018-10-04T01:12:02.014Z,3.00
2018-10-04T01:14:30.108Z,2.43
2018-10-04T01:16:58.573Z,2.57
2018-10-04T01:19:26.668Z,2.50
2018-10-04T01:21:54.741Z,2.43
2018-10-04T01:24:23.118Z,2.90
2018-10-04T01:26:51.196Z,2.23
2018-10-04T01:29:19.289Z,2.53
2018-10-04T01:31:47.377Z,2.43
2018-10-04T01:34:15.473Z,3.23
2018-10-04T01:36:43.565Z,2.37
2018-10-04T01:39:11.630Z,3.27
2018-10-04T01:41:39.726Z,2.40
2018-10-04T01:44:08.603Z,3.27
2018-10-04T01:46:36.753Z,2.50
2018-10-04T01:49:05.382Z,3.17
2018-10-04T01:51:33.469Z,2.47
2018-10-04T01:54:01.575Z,2.10
2018-10-04T01:56:29.661Z,2.10
2018-10-04T01:58:57.776Z,2.83
2018-10-04T02:01:25.858Z,2.60
2018-10-04T02:03:53.938Z,2.10
2018-10-04T02:06:22.023Z,2.77
2018-10-04T02:08:50.130Z,2.77
2018-10-04T02:11:18.197Z,2.57
2018-10-04T02:13:46.545Z,2.43
2018-10-04T02:16:14.643Z,2.37
2018-10-04T02:18:42.742Z,2.93
2018-10-04T02:21:10.834Z,2.83
2018-10-04T02:23:39.698Z,2.00
2018-10-04T02:26:07.791Z,2.50
2018-10-04T02:28:35.894Z,2.23
2018-10-04T02:31:03.974Z,2.27
2018-10-04T02:33:32.055Z,2.20
2018-10-04T02:36:00.164Z,2.27
2018-10-04T02:38:28.230Z,2.43
2018-10-04T02:40:56.629Z,2.90
2018-10-04T02:43:24.761Z,2.73
2018-10-04T02:45:52.825Z,2.37
2018-10-04T02:48:21.019Z,2.07
2018-10-04T02:50:49.132Z,2.20
2018-10-04T02:53:17.231Z,2.47
2018-10-04T02:55:50.749Z,2.50
2018-10-04T02:58:18.840Z,2.07
2018-10-04T03:00:46.924Z,1.90
2018-10-04T03:03:15.066Z,2.30
2018-10-04T03:05:43.111Z,2.70
2018-10-04T03:08:11.221Z,2.80
2018-10-04T03:10:39.281Z,2.70
2018-10-04T03:13:07.397Z,2.27
2018-10-04T03:15:35.443Z,2.90
2018-10-04T03:18:03.579Z,2.40
2018-10-04T03:20:31.672Z,2.47
2018-10-04T03:22:59.744Z,2.60
2018-10-04T03:25:28.034Z,2.13
2018-10-04T03:27:56.104Z,2.50
2018-10-04T03:30:24.162Z,2.30
2018-10-04T03:32:52.224Z,2.83
2018-10-04T03:35:20.293Z,2.33
2018-10-04T03:37:48.355Z,2.20
2018-10-04T03:40:16.416Z,2.30
2018-10-04T03:42:44.490Z,2.70
2018-10-04T03:45:12.590Z,2.20
2018-10-04T03:47:40.655Z,2.63
2018-10-04T03:50:08.722Z,2.27
2018-10-04T03:52:36.775Z,2.87
2018-10-04T03:55:04.864Z,2.63
2018-10-04T03:57:32.947Z,3.17
2018-10-04T04:00:01.044Z,2.20
2018-10-04T04:02:29.169Z,2.63
2018-10-04T04:04:57.300Z,2.37
2018-10-04T04:07:25.354Z,3.00
2018-10-04T04:09:53.433Z,2.50
2018-10-04T04:12:21.512Z,2.47
2018-10-04T04:14:49.625Z,2.33
2018-10-04T04:17:17.703Z,2.63
2018-10-04T04:19:45.800Z,2.17
2018-10-04T04:22:13.896Z,3.27
2018-10-04T04:24:41.967Z,2.50
2018-10-04T04:27:10.041Z,2.80
2018-10-04T04:29:38.131Z,2.73
2018-10-04T04:32:06.313Z,3.13
2018-10-04T04:34:34.315Z,2.33
2018-10-04T04:37:02.383Z,2.67
2018-10-04T04:39:30.441Z,2.73
2018-10-04T04:41:58.535Z,2.77
2018-10-04T04:44:27.096Z,3.20
2018-10-04T04:46:55.272Z,2.27
2018-10-04T04:49:23.312Z,3.20
2018-10-04T04:51:51.391Z,2.30
2018-10-04T04:55:32.954Z,2.60
2018-10-04T04:58:02.094Z,2.83
2018-10-04T05:00:31.330Z,2.53
2018-10-04T05:02:59.566Z,2.43
2018-10-04T05:05:28.100Z,2.70
2018-10-04T05:07:57.206Z,2.80
2018-10-04T05:10:25.761Z,2.90
2018-10-04T05:12:54.418Z,3.03
2018-10-04T05:15:22.482Z,2.80
2018-10-04T05:17:50.751Z,2.87
2018-10-04T05:20:18.853Z,3.40
2018-10-04T05:22:47.048Z,2.90
2018-10-04T05:25:15.114Z,2.53
2018-10-04T05:27:43.242Z,3.80
2018-10-04T05:30:11.315Z,2.83
2018-10-04T05:32:39.397Z,3.47
2018-10-04T05:35:07.465Z,3.33
2018-10-04T05:37:35.669Z,3.40
2018-10-04T05:40:03.770Z,2.80
2018-10-04T05:42:31.934Z,2.70
2018-10-04T05:45:00.092Z,3.00
2018-10-04T05:47:28.225Z,2.80
2018-10-04T05:49:57.014Z,2.70
2018-10-04T05:52:25.112Z,3.30
2018-10-04T05:54:54.178Z,2.40
2018-10-04T05:57:22.291Z,3.43
2018-10-04T06:00:01.726Z,2.90
2018-10-04T06:02:29.849Z,3.00
2018-10-04T06:04:58.083Z,3.00
2018-10-04T06:07:26.158Z,2.97
2018-10-04T06:09:54.296Z,3.10
2018-10-04T06:12:26.395Z,3.27
2018-10-04T06:14:54.537Z,2.93
2018-10-04T06:17:23.276Z,3.10
2018-10-04T06:19:51.440Z,3.10
2018-10-04T06:22:19.826Z,2.83
2018-10-04T06:24:47.968Z,2.97
2018-10-04T06:27:16.083Z,3.13
2018-10-04T06:29:44.192Z,2.83
2018-10-04T06:32:12.386Z,3.00
2018-10-04T06:34:40.526Z,3.07
2018-10-04T06:37:08.667Z,3.40
2018-10-04T06:39:36.869Z,2.83
2018-10-04T06:42:04.961Z,3.27
2018-10-04T06:44:33.209Z,3.83
2018-10-04T06:47:01.355Z,2.97
2018-10-04T06:49:29.481Z,3.03
2018-10-04T06:51:57.600Z,2.87
2018-10-04T06:54:26.545Z,3.33
2018-10-04T06:56:54.706Z,2.50
2018-10-04T06:59:22.847Z,3.67
2018-10-04T07:01:50.944Z,3.57
2018-10-04T07:04:19.849Z,3.33
2018-10-04T07:06:47.990Z,2.77
2018-10-04T07:09:16.190Z,3.60
2018-10-04T07:11:44.410Z,2.77
2018-10-04T07:14:14.274Z,3.20
2018-10-04T07:16:42.443Z,3.93
2018-10-04T07:19:10.595Z,3.13
2018-10-04T07:21:39.063Z,3.30
2018-10-04T07:24:07.241Z,3.23
2018-10-04T07:26:35.382Z,3.33
2018-10-04T07:29:03.551Z,2.90
2018-10-04T07:31:31.658Z,3.20
2018-10-04T07:33:59.791Z,3.00
2018-10-04T07:36:27.923Z,4.20
2018-10-04T07:38:56.023Z,3.10
2018-10-04T07:41:24.149Z,2.77
2018-10-04T07:43:52.292Z,2.60
2018-10-04T07:46:20.455Z,3.07
2018-10-04T07:48:49.365Z,3.40
2018-10-04T07:51:17.608Z,3.00
2018-10-04T07:53:45.738Z,3.30
2018-10-04T07:56:13.857Z,3.20
2018-10-04T07:58:42.015Z,2.70
2018-10-04T08:01:10.182Z,3.20
2018-10-04T08:03:38.341Z,2.83
2018-10-04T08:06:06.665Z,2.67
2018-10-04T08:08:34.619Z,3.47
2018-10-04T08:11:02.845Z,3.17
2018-10-04T08:13:31.005Z,3.67
2018-10-04T08:15:59.133Z,3.50
2018-10-04T08:18:27.310Z,4.13
2018-10-04T08:20:55.452Z,2.97
2018-10-04T08:23:23.696Z,3.67
2018-10-04T08:25:52.026Z,3.60
2018-10-04T08:28:20.327Z,2.97
2018-10-04T08:30:48.592Z,4.07
2018-10-04T08:33:16.756Z,3.87
2018-10-04T08:35:44.910Z,3.33
2018-10-04T08:38:13.093Z,3.63
2018-10-04T08:40:41.188Z,4.23
2018-10-04T08:43:09.374Z,3.00
2018-10-04T08:45:37.473Z,4.53
2018-10-04T08:48:05.667Z,3.60
2018-10-04T08:50:33.993Z,4.33
2018-10-04T08:53:02.115Z,3.37
2018-10-04T08:55:37.270Z,3.60
2018-10-04T08:58:05.490Z,3.70
2018-10-04T09:00:33.924Z,4.40
2018-10-04T09:03:04.137Z,3.70
2018-10-04T09:05:32.870Z,3.90
2018-10-04T09:08:01.007Z,3.60
2018-10-04T09:10:29.202Z,4.77
2018-10-04T09:12:57.305Z,4.40
2018-10-04T09:15:25.486Z,4.17
2018-10-04T09:17:53.622Z,3.57
2018-10-04T09:20:21.835Z,3.93
2018-10-04T09:22:49.970Z,3.77
2018-10-04T09:25:18.088Z,4.30
2018-10-04T09:27:46.179Z,3.93
2018-10-04T09:30:19.974Z,4.00
2018-10-04T09:32:48.308Z,4.83
2018-10-04T09:35:16.565Z,4.43
2018-10-04T09:37:44.689Z,3.80
2018-10-04T09:40:12.877Z,4.37
2018-10-04T09:42:41.933Z,4.17
2018-10-04T09:45:13.047Z,4.57
2018-10-04T09:47:41.206Z,4.00
2018-10-04T09:50:09.520Z,4.87
2018-10-04T09:52:38.679Z,4.77
2018-10-04T09:55:12.098Z,3.93
2018-10-04T09:57:42.588Z,4.70
2018-10-04T10:00:17.041Z,4.43
2018-10-04T10:02:50.642Z,4.30
2018-10-04T10:05:19.044Z,5.17
2018-10-04T10:07:48.039Z,4.37
2018-10-04T10:10:16.334Z,4.30
2018-10-04T10:12:45.235Z,4.60
2018-10-04T10:15:13.871Z,4.57
2018-10-04T10:17:42.199Z,4.47
2018-10-04T10:20:10.715Z,4.60
2018-10-04T10:22:38.841Z,4.47
2018-10-04T10:25:07.676Z,4.73
2018-10-04T10:27:35.754Z,4.90
2018-10-04T10:30:03.917Z,4.23
2018-10-04T10:32:32.068Z,4.90
2018-10-04T10:35:00.423Z,5.30
2018-10-04T10:37:28.623Z,5.60
2018-10-04T10:39:56.851Z,4.80
2018-10-04T10:42:25.015Z,4.93
2018-10-04T10:44:53.133Z,5.40
2018-10-04T10:47:21.331Z,5.17
2018-10-04T10:49:49.467Z,5.27
2018-10-04T10:52:17.687Z,5.57
2018-10-04T10:54:52.081Z,6.20
2018-10-04T10:57:20.199Z,5.67
2018-10-04T10:59:48.342Z,5.33
2018-10-04T11:02:16.429Z,5.60
2018-10-04T11:04:44.576Z,6.63
2018-10-04T11:07:12.762Z,5.17
2018-10-04T11:09:40.921Z,5.17
2018-10-04T11:12:09.030Z,6.23
2018-10-04T11:14:37.186Z,6.00
2018-10-04T11:17:05.395Z,5.17
2018-10-04T11:19:33.463Z,4.63
2018-10-04T11:22:01.633Z,4.80
2018-10-04T11:24:29.847Z,4.90
2018-10-04T11:26:57.882Z,5.27
2018-10-04T11:29:26.212Z,5.53
2018-10-04T11:31:54.233Z,5.83
2018-10-04T11:34:22.310Z,5.03
2018-10-04T11:36:50.461Z,5.53
2018-10-04T11:39:18.797Z,5.50
2018-10-04T11:41:46.983Z,5.50
2018-10-04T11:44:20.967Z,4.87
2018-10-04T11:46:52.208Z,6.00
2018-10-04T11:49:20.350Z,5.73
2018-10-04T11:51:48.693Z,5.77
2018-10-04T11:54:16.808Z,5.40
2018-10-04T11:56:44.999Z,5.27
2018-10-04T11:59:13.084Z,5.53
2018-10-04T12:01:41.359Z,5.00
2018-10-04T12:04:10.148Z,5.20
2018-10-04T12:06:38.347Z,5.27
2018-10-04T12:09:06.938Z,6.17
2018-10-04T12:11:35.068Z,5.60
2018-10-04T12:14:03.206Z,6.63
2018-10-04T12:16:31.345Z,5.87
2018-10-04T12:18:59.474Z,6.70
2018-10-04T12:21:28.499Z,6.20
2018-10-04T12:23:56.628Z,6.03
2018-10-04T12:26:24.806Z,6.47
2018-10-04T12:28:52.946Z,6.87
2018-10-04T12:31:21.208Z,6.17
2018-10-04T12:33:49.212Z,6.77
2018-10-04T12:36:17.423Z,7.00
2018-10-04T12:38:45.512Z,6.53
2018-10-04T12:41:13.646Z,6.97
2018-10-04T12:43:41.812Z,6.63
2018-10-04T12:46:09.951Z,6.10
2018-10-04T12:48:38.130Z,7.53
2018-10-04T12:51:06.437Z,6.57
2018-10-04T12:53:34.598Z,6.23
2018-10-04T12:56:02.693Z,6.27
2018-10-04T12:58:30.872Z,5.57
2018-10-04T13:00:59.070Z,5.73
2018-10-04T13:03:27.122Z,6.77
2018-10-04T13:05:55.254Z,6.27
2018-10-04T13:08:23.441Z,7.97
2018-10-04T13:10:51.540Z,7.47
2018-10-04T13:13:19.704Z,7.33
2018-10-04T13:15:47.836Z,7.30
2018-10-04T13:18:16.032Z,7.23
2018-10-04T13:20:44.327Z,8.23
2018-10-04T13:23:13.277Z,7.80
2018-10-04T13:25:41.412Z,7.37
2018-10-04T13:28:09.533Z,8.23
2018-10-04T13:30:37.663Z,7.53
2018-10-04T13:33:05.807Z,7.60
2018-10-04T13:35:33.899Z,6.90
2018-10-04T13:38:02.054Z,6.93
2018-10-04T13:40:30.804Z,6.90
2018-10-04T13:42:59.008Z,6.90
2018-10-04T13:45:27.111Z,8.03
2018-10-04T13:47:55.271Z,7.33
2018-10-04T13:50:23.383Z,7.80
2018-10-04T13:52:51.532Z,8.20
2018-10-04T13:55:19.726Z,8.13
2018-10-04T13:57:47.869Z,8.17
2018-10-04T14:00:15.985Z,8.13
2018-10-04T14:02:44.276Z,8.13
2018-10-04T14:05:12.451Z,8.20
2018-10-04T14:07:40.555Z,7.90
2018-10-04T14:10:08.689Z,8.47
2018-10-04T14:12:36.799Z,8.03
2018-10-04T14:15:04.952Z,8.30
2018-10-04T14:17:33.137Z,8.27
2018-10-04T14:20:01.294Z,7.80
2018-10-04T14:22:29.394Z,7.80
2018-10-04T14:24:57.583Z,8.30
2018-10-04T14:27:25.693Z,7.77
2018-10-04T14:29:53.869Z,8.60
2018-10-04T14:32:22.059Z,7.37
2018-10-04T14:34:50.145Z,7.57
2018-10-04T14:37:18.283Z,7.67
2018-10-04T14:39:46.448Z,8.40
2018-10-04T14:42:14.632Z,7.50
2018-10-04T14:44:42.738Z,7.27
2018-10-04T14:47:10.831Z,7.37
2018-10-04T14:49:38.940Z,7.23
2018-10-04T14:52:07.096Z,6.93
2018-10-04T14:54:35.287Z,7.10
2018-10-04T14:57:03.706Z,6.90
2018-10-04T14:59:31.822Z,7.27
2018-10-04T15:01:59.970Z,7.30
2018-10-04T15:04:28.096Z,7.20
2018-10-04T15:06:56.397Z,6.77
2018-10-04T15:09:24.565Z,6.80
2018-10-04T15:11:52.678Z,6.57
2018-10-04T15:14:20.776Z,6.90
2018-10-04T15:16:48.912Z,7.07
2018-10-04T15:19:17.082Z,7.10
2018-10-04T15:21:45.399Z,6.67
2018-10-04T15:24:14.881Z,6.77
2018-10-04T15:26:42.971Z,6.40
2018-10-04T15:29:11.066Z,7.10
2018-10-04T15:31:39.200Z,6.40
2018-10-04T15:34:07.325Z,6.40
2018-10-04T15:36:35.467Z,6.40
2018-10-04T15:39:05.077Z,6.70
2018-10-04T15:41:33.193Z,6.20
2018-10-04T15:44:01.387Z,6.60
2018-10-04T15:46:29.399Z,6.50
2018-10-04T15:48:57.489Z,7.30
2018-10-04T15:51:25.605Z,6.37
2018-10-04T15:53:53.728Z,6.90
2018-10-04T15:56:21.847Z,5.97
2018-10-04T15:58:49.912Z,6.53
2018-10-04T16:01:18.051Z,6.80
2018-10-04T16:03:46.170Z,7.03
2018-10-04T16:06:15.000Z,7.40
2018-10-04T16:08:43.128Z,7.23
2018-10-04T16:11:11.243Z,7.23
2018-10-04T16:13:39.406Z,7.23
2018-10-04T16:16:07.513Z,6.90
2018-10-04T16:21:28.452Z,7.13
2018-10-04T16:23:56.549Z,6.93
2018-10-04T16:26:24.679Z,7.23
2018-10-04T16:28:52.902Z,7.03
2018-10-04T16:31:21.237Z,7.17
2018-10-04T16:33:49.372Z,7.47
2018-10-04T16:36:17.509Z,7.67
2018-10-04T16:38:45.690Z,8.00
2018-10-04T16:41:13.785Z,7.70
2018-10-04T16:43:41.887Z,8.50
2018-10-04T16:46:10.021Z,7.60
2018-10-04T16:48:38.253Z,8.30
2018-10-04T16:51:06.341Z,7.97
2018-10-04T16:53:34.457Z,7.77
2018-10-04T16:56:03.182Z,8.03
2018-10-04T16:58:31.241Z,8.60
2018-10-04T17:00:59.311Z,8.07
2018-10-04T17:03:27.365Z,7.80
2018-10-04T17:05:55.475Z,8.30
2018-10-04T17:08:23.548Z,7.33
2018-10-04T17:10:51.607Z,7.97
2018-10-04T17:13:19.679Z,8.03
2018-10-04T17:15:47.802Z,8.27
2018-10-04T17:18:15.910Z,8.93
2018-10-04T17:20:43.962Z,8.97
2018-10-04T17:23:12.048Z,8.93
2018-10-04T17:25:40.102Z,9.80
2018-10-04T17:28:08.196Z,9.33
2018-10-04T17:30:36.545Z,9.70
2018-10-04T17:33:04.622Z,9.53
2018-10-04T17:35:32.705Z,10.17
2018-10-04T17:38:00.778Z,8.93
2018-10-04T17:40:28.863Z,9.37
2018-10-04T17:42:57.845Z,9.50
2018-10-04T17:45:25.961Z,9.60
2018-10-04T17:47:54.194Z,10.03
2018-10-04T17:50:22.115Z,10.57
2018-10-04T17:52:50.238Z,10.43
2018-10-04T17:55:18.391Z,10.33
2018-10-04T17:57:46.453Z,10.20
2018-10-04T18:00:15.218Z,9.73
2018-10-04T18:02:43.391Z,10.23
2018-10-04T18:05:11.680Z,9.80
2018-10-04T18:07:40.127Z,10.60
2018-10-04T18:10:08.203Z,10.40
2018-10-04T18:12:36.310Z,11.03
2018-10-04T18:15:04.504Z,10.73
2018-10-04T18:17:32.610Z,11.03
2018-10-04T18:20:00.707Z,11.57
2018-10-04T18:22:28.782Z,12.23
2018-10-04T18:24:57.269Z,12.37
2018-10-04T18:27:25.389Z,12.17
2018-10-04T18:29:53.444Z,11.93
2018-10-04T18:32:21.546Z,12.20
2018-10-04T18:34:49.627Z,12.67
2018-10-04T18:37:17.730Z,11.87
2018-10-04T18:39:45.825Z,12.07
2018-10-04T18:42:13.908Z,12.37
2018-10-04T18:44:41.999Z,11.67
2018-10-04T18:47:10.103Z,11.77
2018-10-04T18:49:38.809Z,12.43
2018-10-04T18:52:07.050Z,12.40
2018-10-04T18:54:35.109Z,11.90
2018-10-04T18:57:03.191Z,11.87
2018-10-04T18:59:31.310Z,12.17
2018-10-04T19:01:59.378Z,12.50
2018-10-04T19:07:20.339Z,11.13
2018-10-04T19:09:48.437Z,12.07
2018-10-04T19:12:16.513Z,11.43
2018-10-04T19:14:44.580Z,11.43
2018-10-04T19:17:12.684Z,11.10
2018-10-04T19:19:40.753Z,10.80
2018-10-04T19:22:08.843Z,10.77
2018-10-04T19:24:36.930Z,10.87
2018-10-04T19:27:05.011Z,10.90
2018-10-04T19:29:33.159Z,10.53
2018-10-04T19:32:01.465Z,11.13
2018-10-04T19:34:29.684Z,11.13
2018-10-04T19:36:57.785Z,11.03
2018-10-04T19:39:25.848Z,10.77
2018-10-04T19:41:53.935Z,10.03
2018-10-04T19:44:22.045Z,10.90
2018-10-04T19:46:50.199Z,10.57
2018-10-04T19:49:18.217Z,9.90
2018-10-04T19:51:46.813Z,10.40
2018-10-04T19:54:15.457Z,10.17
2018-10-04T19:56:43.507Z,10.87
2018-10-04T19:59:11.606Z,11.13
2018-10-04T20:01:39.674Z,10.53
2018-10-04T20:04:07.887Z,10.97
2018-10-04T20:06:35.983Z,11.30
2018-10-04T20:09:04.872Z,10.60
2018-10-04T20:11:33.074Z,9.73
2018-10-04T20:14:01.200Z,11.47
2018-10-04T20:16:29.263Z,11.63
2018-10-04T20:18:57.419Z,11.33
2018-10-04T20:21:25.555Z,11.77
2018-10-04T20:23:53.629Z,11.57
2018-10-04T20:26:21.738Z,11.40
2018-10-04T20:28:49.818Z,11.47
2018-10-04T20:31:17.871Z,11.80
2018-10-04T20:33:46.104Z,12.40
2018-10-04T20:36:14.245Z,12.83
2018-10-04T20:38:42.303Z,12.80
2018-10-04T20:41:10.391Z,13.40
2018-10-04T20:43:38.534Z,14.10
2018-10-04T20:46:06.690Z,13.77
2018-10-04T20:48:34.791Z,13.17
2018-10-04T20:51:02.877Z,14.80
2018-10-04T20:53:31.025Z,14.07
2018-10-04T20:55:59.068Z,14.07
2018-10-04T20:58:27.448Z,16.10
2018-10-04T21:00:55.551Z,15.83
2018-10-04T21:03:23.626Z,17.07
2018-10-04T21:05:51.676Z,16.63
2018-10-04T21:08:19.816Z,17.53
2018-10-04T21:10:47.912Z,18.70
2018-10-04T21:13:15.989Z,19.67
2018-10-04T21:15:44.104Z,21.00
2018-10-04T21:18:12.256Z,19.27
2018-10-04T21:20:40.311Z,17.60
2018-10-04T21:23:08.501Z,17.30
2018-10-04T21:25:36.489Z,20.10
2018-10-04T21:28:04.564Z,21.33
2018-10-04T21:30:32.626Z,21.67
2018-10-04T21:33:00.907Z,21.63
2018-10-04T21:35:29.005Z,21.90
2018-10-04T21:37:57.075Z,22.13
2018-10-04T21:40:25.151Z,20.47
2018-10-04T21:42:53.213Z,20.60
2018-10-04T21:45:21.307Z,20.40
2018-10-04T21:47:49.372Z,21.03
2018-10-04T21:50:17.699Z,21.33
2018-10-04T21:52:45.775Z,20.27
2018-10-04T21:55:13.870Z,22.07
2018-10-04T21:57:41.922Z,21.37
2018-10-04T22:00:10.660Z,20.90
2018-10-04T22:02:38.739Z,21.87
2018-10-04T22:05:06.906Z,20.40
2018-10-04T22:07:34.980Z,22.37
2018-10-04T22:10:03.069Z,22.03
2018-10-04T22:12:31.293Z,21.97
2018-10-04T22:14:59.432Z,22.70
2018-10-04T22:17:27.495Z,22.17
2018-10-04T22:19:55.647Z,23.17
2018-10-04T22:22:23.726Z,22.40
2018-10-04T22:24:51.815Z,20.73
2018-10-04T22:27:19.890Z,19.37
2018-10-04T22:29:48.006Z,20.20
2018-10-04T22:32:16.055Z,21.33
2018-10-04T22:34:44.125Z,19.77
2018-10-04T22:37:12.225Z,19.37
2018-10-04T22:39:40.338Z,19.73
2018-10-04T22:42:08.858Z,21.00
2018-10-04T22:44:36.946Z,21.17
2018-10-04T22:47:05.242Z,21.60
2018-10-04T22:49:33.392Z,20.17
2018-10-04T22:52:01.765Z,18.87
2018-10-04T22:54:29.961Z,18.87
2018-10-04T22:56:58.096Z,18.50
2018-10-04T22:59:26.191Z,18.23
2018-10-04T23:01:54.267Z,18.63
2018-10-04T23:04:22.383Z,17.03
2018-10-04T23:06:50.494Z,16.80
2018-10-04T23:09:18.595Z,16.37
2018-10-04T23:11:46.771Z,17.43
2018-10-04T23:14:15.677Z,19.00
2018-10-04T23:16:43.762Z,19.13
2018-10-04T23:19:11.880Z,18.17
2018-10-04T23:21:40.011Z,18.80
2018-10-04T23:24:08.306Z,18.33
2018-10-04T23:26:36.422Z,17.43
2018-10-04T23:29:04.548Z,17.07
2018-10-04T23:31:32.680Z,17.03
2018-10-04T23:34:00.842Z,17.23
2018-10-04T23:36:28.942Z,16.47
2018-10-04T23:38:57.048Z,17.40
2018-10-04T23:41:25.198Z,17.03
2018-10-04T23:43:53.307Z,15.80
2018-10-04T23:46:21.427Z,15.57
2018-10-04T23:48:49.666Z,15.83
2018-10-04T23:51:17.747Z,16.53
2018-10-04T23:53:46.072Z,17.20
2018-10-04T23:56:14.188Z,16.73
2018-10-04T23:58:42.256Z,17.33
